Airfield :
LOGIN :

Register | Disclaimer

   EN    FR    IT 

 










Legend :    VFR   Marginal VFR   IFR   Intensive IFR   Very Intensive IFR
Visi :
Ceiling :
>= 8 km
>= 3000ft
5 to 8 km
1000 to 3000 ft
1500m to 5 km
500 to 1000 ft
800 to 1500m
200 to 500 ft
< 800m
< 200 ft
Symbols :   Thunderstorms  Fog  Heavy snow  Heavy precipitations  Wind > 20 kt
SIGMETs :     Misc.  Thunderstorms  Icing  Turbulence  Mountain Waves  Volcanic Ashes






- Airport Elevation : 659 ft
- IATA code : LYN


LFLY - Lyon Bron

CURRENT METAR :
  • 050100Z AUTO 03004KT CAVOK 17/10 Q1016 NOSIG

EXPIRED METARs :
  • 050030Z AUTO 01005KT CAVOK 17/10 Q1016 NOSIG
  • 050000Z AUTO 33006KT CAVOK 18/10 Q1016 NOSIG
  • 042330Z AUTO 33008KT CAVOK 18/10 Q1016 NOSIG
  • 042300Z AUTO 34006KT CAVOK 18/10 Q1016 NOSIG
  • 042230Z AUTO 34005KT CAVOK 19/10 Q1016 NOSIG

TAF TAF LFLY
Valid from the 05 at 00:00 until the 06 at 00:00 UTC


042300Z 0500/0524 VRB02KT CAVOK
BECMG 0506/0508 36008KT
BECMG 0519/0521 VRB02KT
ATIS : +33 4 72 15 87 96



MET'MAP, your aeronautical weather chart ! - Copyright ORBIFLY December 2007 - Disclaimer

ORBIFLY MET'MAP TEAM :

Programming & Development : Alexandra Zaïnal
Concept & original design : Baudouin d'Aumeries
Assistance for programming : Marc-Olivier Méhu
Technical & hardware support : Manuel Goepfert

Contact : metmap@orbifly.com




SOURCES & CREDITS :

   NOAA